Time;durP1;ratioP1;P1;durP2;ratioP2;P2;SDS_P1;SDS_P2;PMS_P1;PMS_P2;Temp;Humidity;BMP_temperature;BMP_pressure;BME280_temperature;BME280_humidity;BME280_pressure;Samples;Min_cycle;Max_cycle;Signal;HPM_P1;HPM_P2
2021/04/23 00:01:27;;;;;;;6.97;2.25;;;6.00;44.80;;;;;;5001382;28;20180;-75
2021/04/23 00:03:56;;;;;;;9.07;2.65;;;6.00;45.00;;;;;;4995016;28;20035;-75
2021/04/23 00:06:26;;;;;;;6.63;2.30;;;6.00;45.90;;;;;;4998988;28;20034;-75
2021/04/23 00:09:06;;;;;;;13.68;2.40;;;6.00;47.80;;;;;;5000900;28;20536;-76
2021/04/23 00:11:36;;;;;;;9.10;2.17;;;5.90;48.50;;;;;;5001947;28;20122;-75
2021/04/23 00:14:03;;;;;;;7.13;2.30;;;5.90;47.70;;;;;;4999039;28;20137;-75
2021/04/23 00:16:29;;;;;;;12.98;1.90;;;5.90;49.60;;;;;;5005037;28;20117;-75
2021/04/23 00:18:54;;;;;;;13.77;2.20;;;5.80;49.00;;;;;;5025626;23;20043;-69
2021/04/23 00:21:22;;;;;;;18.00;2.35;;;5.80;49.50;;;;;;5038867;28;20143;-71
2021/04/23 00:23:49;;;;;;;8.95;2.90;;;5.80;49.70;;;;;;5039531;28;20098;-70
2021/04/23 00:26:15;;;;;;;10.05;2.30;;;5.80;50.50;;;;;;5038601;28;20069;-70
2021/04/23 00:28:41;;;;;;;9.93;2.33;;;5.80;50.90;;;;;;5049904;28;20116;-70
2021/04/23 00:31:08;;;;;;;11.32;2.60;;;5.80;52.10;;;;;;5040933;28;20033;-70
2021/04/23 00:33:35;;;;;;;6.90;1.83;;;5.70;52.50;;;;;;5033993;28;20113;-70
2021/04/23 00:36:02;;;;;;;10.35;1.98;;;5.70;52.70;;;;;;5038921;28;20025;-70
2021/04/23 00:38:29;;;;;;;6.72;1.98;;;5.70;53.40;;;;;;5040133;28;20049;-71
2021/04/23 00:41:05;;;;;;;6.05;2.25;;;5.70;53.20;;;;;;5039777;28;20042;-71
2021/04/23 00:43:37;;;;;;;8.95;2.05;;;5.70;53.60;;;;;;5041225;28;20058;-71
2021/04/23 00:46:03;;;;;;;7.00;1.88;;;5.60;53.10;;;;;;5038565;28;20495;-71
2021/04/23 00:48:32;;;;;;;5.78;1.73;;;5.60;53.90;;;;;;5039711;28;20048;-70
2021/04/23 00:51:07;;;;;;;17.85;2.75;;;5.50;53.30;;;;;;5040088;28;20494;-71
2021/04/23 00:53:36;;;;;;;9.13;2.30;;;5.50;53.20;;;;;;5040510;28;20041;-71
2021/04/23 00:56:06;;;;;;;10.52;2.28;;;5.50;54.50;;;;;;5038555;28;22578;-70
2021/04/23 00:58:32;;;;;;;9.77;2.40;;;5.40;55.60;;;;;;5049712;28;20044;-70
2021/04/23 01:01:04;;;;;;;8.63;2.47;;;5.40;56.00;;;;;;5042047;28;20041;-71
2021/04/23 01:03:31;;;;;;;9.85;2.70;;;5.40;56.30;;;;;;5041763;28;20029;-71
2021/04/23 01:05:59;;;;;;;10.02;2.47;;;5.40;56.80;;;;;;5037539;28;20045;-71
2021/04/23 01:08:26;;;;;;;12.45;2.30;;;5.40;57.50;;;;;;5040048;28;20032;-72
2021/04/23 01:10:54;;;;;;;8.52;2.20;;;5.30;57.40;;;;;;5038836;28;20037;-70
2021/04/23 01:13:20;;;;;;;11.75;2.72;;;5.40;59.40;;;;;;5038652;28;20033;-71
2021/04/23 01:15:46;;;;;;;14.13;2.72;;;5.30;58.20;;;;;;5039894;28;20049;-70
2021/04/23 01:18:11;;;;;;;18.67;2.38;;;5.30;59.10;;;;;;5040979;28;20049;-70
2021/04/23 01:20:37;;;;;;;8.85;2.17;;;5.20;58.60;;;;;;5038757;28;20065;-70
2021/04/23 01:23:02;;;;;;;14.90;2.60;;;5.30;59.10;;;;;;5041402;28;20037;-70
2021/04/23 01:25:28;;;;;;;14.88;2.88;;;5.20;58.50;;;;;;5040642;28;20879;-70
2021/04/23 01:27:54;;;;;;;13.82;3.28;;;5.20;59.50;;;;;;5041307;28;20115;-70
2021/04/23 01:30:22;;;;;;;14.95;3.40;;;5.20;59.50;;;;;;5039765;28;20039;-72
2021/04/23 01:32:49;;;;;;;17.83;2.63;;;5.10;60.20;;;;;;5042338;28;20064;-70
2021/04/23 01:35:19;;;;;;;7.40;2.70;;;5.10;60.10;;;;;;5040577;28;20114;-70
2021/04/23 01:37:45;;;;;;;14.23;2.80;;;5.10;60.10;;;;;;5040582;28;20037;-70
2021/04/23 01:40:12;;;;;;;13.27;2.92;;;5.00;60.40;;;;;;5037494;28;20091;-70
2021/04/23 01:42:38;;;;;;;8.02;2.05;;;5.00;61.50;;;;;;5042635;28;20044;-70
2021/04/23 01:45:08;;;;;;;9.35;2.45;;;5.00;61.30;;;;;;5043303;28;20060;-70
2021/04/23 01:47:34;;;;;;;10.30;2.60;;;4.90;60.90;;;;;;5041895;28;20037;-70
2021/04/23 01:49:59;;;;;;;13.02;2.28;;;4.90;61.00;;;;;;5036640;28;20098;-70
2021/04/23 01:52:26;;;;;;;11.32;2.33;;;4.90;60.90;;;;;;5038468;28;20033;-70
2021/04/23 01:54:51;;;;;;;10.10;2.45;;;4.90;60.00;;;;;;5036756;28;20040;-71
2021/04/23 01:57:18;;;;;;;13.45;3.90;;;4.80;59.70;;;;;;5040258;28;20037;-70
2021/04/23 01:59:46;;;;;;;16.58;2.85;;;4.80;59.50;;;;;;5036688;28;20047;-69
2021/04/23 02:02:13;;;;;;;18.63;1.73;;;4.80;60.30;;;;;;5040273;28;20068;-69
2021/04/23 02:04:39;;;;;;;12.07;2.78;;;4.80;60.50;;;;;;5039507;28;20489;-71
2021/04/23 02:07:08;;;;;;;7.22;2.13;;;4.80;61.20;;;;;;5036962;28;20103;-69
2021/04/23 02:09:35;;;;;;;7.22;2.13;;;4.70;61.40;;;;;;5039326;28;20071;-69
2021/04/23 02:12:01;;;;;;;9.45;1.88;;;4.70;61.50;;;;;;5035749;28;20033;-71
2021/04/23 02:14:27;;;;;;;14.40;2.63;;;4.70;61.70;;;;;;5040481;28;20036;-71
2021/04/23 02:16:54;;;;;;;10.40;2.67;;;4.70;61.80;;;;;;5035106;28;20037;-71
2021/04/23 02:19:21;;;;;;;14.15;2.75;;;4.70;62.90;;;;;;5037125;28;20494;-71
2021/04/23 02:21:48;;;;;;;12.10;2.47;;;4.70;63.60;;;;;;5031779;28;20040;-71
2021/04/23 02:24:14;;;;;;;8.27;2.25;;;4.70;63.80;;;;;;5037225;28;20041;-72
2021/04/23 02:26:41;;;;;;;14.98;2.67;;;4.70;63.80;;;;;;5037920;28;20025;-71
2021/04/23 02:29:12;;;;;;;13.75;2.60;;;4.60;63.70;;;;;;5037351;28;20549;-71
2021/04/23 02:31:44;;;;;;;8.68;2.75;;;4.60;63.90;;;;;;5040046;28;20033;-71
2021/04/23 02:34:12;;;;;;;17.25;3.50;;;4.60;63.70;;;;;;5044973;28;20033;-72
2021/04/23 02:36:39;;;;;;;10.82;3.00;;;4.50;63.60;;;;;;5046024;28;20033;-71
2021/04/23 02:39:07;;;;;;;17.08;3.22;;;4.50;63.60;;;;;;5042322;28;20113;-71
2021/04/23 02:41:33;;;;;;;11.57;2.42;;;4.50;64.30;;;;;;5046392;28;20052;-71
2021/04/23 02:43:59;;;;;;;6.28;2.25;;;4.40;64.10;;;;;;5037357;28;20129;-71
2021/04/23 02:46:27;;;;;;;11.20;2.33;;;4.40;64.50;;;;;;5038448;28;20112;-71
2021/04/23 02:48:53;;;;;;;10.73;3.15;;;4.40;65.20;;;;;;5038896;28;20033;-71
2021/04/23 02:51:30;;;;;;;8.27;2.38;;;4.40;65.40;;;;;;5039871;28;20532;-71
2021/04/23 02:53:58;;;;;;;14.55;3.58;;;4.30;65.40;;;;;;5039568;28;20040;-71
2021/04/23 02:56:25;;;;;;;10.95;2.78;;;4.30;65.30;;;;;;5040743;28;20493;-71
2021/04/23 02:58:52;;;;;;;16.30;4.07;;;4.30;65.50;;;;;;5043050;28;20047;-71
2021/04/23 03:01:21;;;;;;;15.23;3.13;;;4.30;66.00;;;;;;5040728;28;20660;-71
2021/04/23 03:03:47;;;;;;;13.70;2.85;;;4.20;66.90;;;;;;5039271;28;20056;-71
2021/04/23 03:06:13;;;;;;;16.90;3.20;;;4.20;67.10;;;;;;5039138;28;20055;-71
2021/04/23 03:08:39;;;;;;;11.13;3.17;;;4.20;68.10;;;;;;5043078;28;20086;-71
2021/04/23 03:11:14;;;;;;;10.90;3.28;;;4.20;68.90;;;;;;5039217;28;20036;-72
2021/04/23 03:13:43;;;;;;;7.50;2.67;;;4.20;68.70;;;;;;5040730;28;20116;-71
2021/04/23 03:16:09;;;;;;;19.80;3.38;;;4.20;69.00;;;;;;5040663;28;20032;-71
2021/04/23 03:18:38;;;;;;;11.63;2.75;;;4.10;68.90;;;;;;5042680;28;20091;-70
2021/04/23 03:21:05;;;;;;;12.68;3.28;;;4.10;69.40;;;;;;5043019;28;20040;-70
2021/04/23 03:23:31;;;;;;;18.75;3.83;;;4.10;69.30;;;;;;5041295;28;20056;-72
2021/04/23 03:26:03;;;;;;;11.85;2.78;;;4.10;69.30;;;;;;5040234;28;20033;-70
2021/04/23 03:28:29;;;;;;;15.05;3.58;;;4.00;69.40;;;;;;5040748;28;20049;-70
2021/04/23 03:30:55;;;;;;;11.50;3.00;;;4.00;70.00;;;;;;5042062;28;20041;-70
2021/04/23 03:33:21;;;;;;;12.57;3.38;;;4.00;70.50;;;;;;5039755;28;20065;-70
2021/04/23 03:35:50;;;;;;;15.68;3.10;;;4.00;70.80;;;;;;5039611;28;20047;-70
2021/04/23 03:38:17;;;;;;;8.98;3.20;;;3.90;71.10;;;;;;5038121;28;20041;-70
2021/04/23 03:40:43;;;;;;;10.48;3.45;;;4.00;71.80;;;;;;5035525;28;20133;-70
2021/04/23 03:43:09;;;;;;;13.80;3.00;;;3.90;72.60;;;;;;5042230;28;20087;-71
2021/04/23 03:45:36;;;;;;;13.80;3.70;;;3.90;72.50;;;;;;5037023;28;20044;-71
2021/04/23 03:48:04;;;;;;;10.77;3.22;;;3.80;72.90;;;;;;5037610;28;20102;-71
2021/04/23 03:50:32;;;;;;;14.00;3.05;;;3.80;73.10;;;;;;5042531;28;20033;-71
2021/04/23 03:53:00;;;;;;;11.90;3.33;;;3.90;73.80;;;;;;5040892;28;20086;-71
2021/04/23 03:55:32;;;;;;;8.55;2.97;;;3.90;74.10;;;;;;5036711;28;20026;-70
2021/04/23 03:57:59;;;;;;;19.98;4.03;;;3.90;74.10;;;;;;5041079;28;20041;-70
2021/04/23 04:00:36;;;;;;;19.38;3.25;;;3.80;74.30;;;;;;5040206;28;20037;-70
2021/04/23 04:03:03;;;;;;;13.15;4.13;;;3.80;74.70;;;;;;5038335;28;20069;-70
2021/04/23 04:05:29;;;;;;;13.20;4.07;;;3.80;75.70;;;;;;5040556;28;20140;-70
2021/04/23 04:07:54;;;;;;;17.83;4.00;;;3.80;76.20;;;;;;5038732;28;20465;-70
2021/04/23 04:10:20;;;;;;;13.02;3.88;;;3.80;76.80;;;;;;5037014;28;20044;-70
2021/04/23 04:12:47;;;;;;;12.65;4.35;;;3.80;77.30;;;;;;5038754;28;20124;-70
2021/04/23 04:15:14;;;;;;;9.13;3.75;;;3.80;77.70;;;;;;5043082;28;20434;-71
2021/04/23 04:17:39;;;;;;;16.10;3.90;;;3.80;78.00;;;;;;5041067;28;20051;-69
2021/04/23 04:20:08;;;;;;;14.25;3.80;;;3.70;77.90;;;;;;5035253;28;20793;-71
2021/04/23 04:22:34;;;;;;;8.30;3.50;;;3.70;78.60;;;;;;5048407;28;20127;-69
2021/04/23 04:25:00;;;;;;;14.00;3.72;;;3.70;79.60;;;;;;5044794;28;20426;-70
2021/04/23 04:27:26;;;;;;;13.60;3.45;;;3.70;79.80;;;;;;5040085;28;20037;-70
2021/04/23 04:29:51;;;;;;;21.02;4.25;;;3.70;80.60;;;;;;5034445;28;20038;-70
2021/04/23 04:32:18;;;;;;;10.35;3.60;;;3.70;80.60;;;;;;5042737;28;20064;-70
2021/04/23 04:34:45;;;;;;;20.02;3.97;;;3.70;81.10;;;;;;5042372;28;20032;-70
2021/04/23 04:37:11;;;;;;;24.50;3.92;;;3.70;81.20;;;;;;5038347;28;20040;-70
2021/04/23 04:39:38;;;;;;;13.52;3.53;;;3.70;81.60;;;;;;5041297;28;20033;-70
2021/04/23 04:42:04;;;;;;;13.18;3.80;;;3.70;81.50;;;;;;5041676;28;20086;-70
2021/04/23 04:44:29;;;;;;;13.73;3.42;;;3.70;81.90;;;;;;5041787;28;20045;-70
2021/04/23 04:46:55;;;;;;;21.67;3.60;;;3.70;82.40;;;;;;5041421;28;20037;-70
2021/04/23 04:49:21;;;;;;;13.60;4.05;;;3.80;82.60;;;;;;5039206;28;20057;-70
2021/04/23 04:51:46;;;;;;;18.95;4.38;;;3.70;82.90;;;;;;5041532;28;20695;-70
2021/04/23 04:54:12;;;;;;;10.30;3.65;;;3.80;83.30;;;;;;5037748;28;20748;-70
2021/04/23 04:56:38;;;;;;;16.60;4.00;;;3.80;83.30;;;;;;5040434;28;20391;-70
2021/04/23 04:59:03;;;;;;;9.73;3.20;;;3.80;83.40;;;;;;5037510;28;20045;-70
2021/04/23 05:01:29;;;;;;;12.88;3.38;;;3.90;83.00;;;;;;5040204;28;20049;-70
2021/04/23 05:03:55;;;;;;;26.35;4.57;;;3.90;83.40;;;;;;5040162;28;20083;-70
2021/04/23 05:06:20;;;;;;;13.15;3.83;;;3.90;82.90;;;;;;5040627;28;20040;-70
2021/04/23 05:08:46;;;;;;;16.60;3.85;;;4.00;83.30;;;;;;5045603;28;21082;-71
2021/04/23 05:11:12;;;;;;;15.25;4.30;;;4.00;83.20;;;;;;5044192;28;20075;-70
2021/04/23 05:13:38;;;;;;;15.95;4.00;;;4.00;83.20;;;;;;5041727;28;20101;-70
2021/04/23 05:16:04;;;;;;;23.60;3.92;;;4.00;82.90;;;;;;5042936;28;20037;-71
2021/04/23 05:18:29;;;;;;;15.30;4.32;;;4.10;82.70;;;;;;5039968;28;20047;-69
2021/04/23 05:20:55;;;;;;;14.68;4.15;;;4.20;82.90;;;;;;5038683;28;20044;-71
2021/04/23 05:23:20;;;;;;;14.95;3.40;;;4.20;81.60;;;;;;5041261;28;20118;-69
2021/04/23 05:25:46;;;;;;;23.00;4.22;;;4.30;81.50;;;;;;5038694;28;20547;-69
2021/04/23 05:28:12;;;;;;;21.83;4.10;;;4.30;80.20;;;;;;5040460;28;20673;-70
2021/04/23 05:30:38;;;;;;;20.13;3.80;;;4.50;78.50;;;;;;5040198;28;20044;-70
2021/04/23 05:33:07;;;;;;;15.60;3.97;;;4.60;77.60;;;;;;5040444;28;20072;-72
2021/04/23 05:35:33;;;;;;;17.38;4.22;;;4.70;77.50;;;;;;5044487;28;20072;-70
2021/04/23 05:38:00;;;;;;;21.05;4.45;;;4.80;76.60;;;;;;5042055;28;20076;-71
2021/04/23 05:40:45;;;;;;;13.38;4.05;;;5.00;77.10;;;;;;5038554;28;20137;-71
2021/04/23 05:43:13;;;;;;;16.92;4.75;;;5.10;75.60;;;;;;5044123;28;20041;-71
2021/04/23 05:45:41;;;;;;;21.30;4.13;;;5.20;75.40;;;;;;5041468;28;20037;-71
2021/04/23 05:48:07;;;;;;;16.20;4.65;;;5.40;74.60;;;;;;5037729;28;20044;-70
2021/04/23 05:50:34;;;;;;;19.25;5.20;;;5.60;74.40;;;;;;5039340;28;20164;-70
2021/04/23 05:53:00;;;;;;;14.13;4.65;;;5.70;72.80;;;;;;5032118;28;20665;-70
2021/04/23 05:55:26;;;;;;;22.60;4.10;;;5.90;71.40;;;;;;5041063;28;20037;-70
2021/04/23 05:57:58;;;;;;;28.38;4.95;;;6.10;70.80;;;;;;5029806;28;20043;-71
2021/04/23 06:00:27;;;;;;;23.58;4.85;;;6.20;70.20;;;;;;5034384;28;20033;-72
2021/04/23 06:02:55;;;;;;;19.05;4.72;;;6.30;69.50;;;;;;5029632;28;20037;-71
2021/04/23 06:05:26;;;;;;;25.33;5.47;;;6.40;69.10;;;;;;5031963;28;20052;-70
2021/04/23 06:07:52;;;;;;;32.88;5.88;;;6.60;69.00;;;;;;5028465;28;20029;-71
2021/04/23 06:10:19;;;;;;;14.75;5.53;;;6.70;68.90;;;;;;5038475;28;20036;-70
2021/04/23 06:12:44;;;;;;;22.95;5.43;;;6.90;68.80;;;;;;5035991;28;20041;-70
2021/04/23 06:15:13;;;;;;;28.52;5.80;;;7.10;68.10;;;;;;5039366;28;20037;-70
2021/04/23 06:17:40;;;;;;;19.40;5.50;;;7.20;67.30;;;;;;5032953;28;20045;-70
2021/04/23 06:20:09;;;;;;;18.42;6.22;;;7.10;67.00;;;;;;5053900;22;20087;-78
2021/04/23 06:22:35;;;;;;;22.70;6.43;;;7.30;66.50;;;;;;5029258;28;20048;-78
2021/04/23 06:25:00;;;;;;;30.80;6.57;;;7.30;66.10;;;;;;5031511;28;20032;-78
2021/04/23 06:27:26;;;;;;;38.53;8.40;;;7.40;65.80;;;;;;5033052;28;20120;-77
2021/04/23 06:29:52;;;;;;;27.88;6.68;;;7.60;65.20;;;;;;5034624;28;20672;-78
2021/04/23 06:32:19;;;;;;;27.80;7.22;;;7.60;64.90;;;;;;5028346;28;20575;-77
2021/04/23 06:34:44;;;;;;;23.65;6.47;;;7.80;64.60;;;;;;5034531;28;20481;-78
2021/04/23 06:37:10;;;;;;;20.13;6.97;;;7.90;64.00;;;;;;5033787;28;20132;-78
2021/04/23 06:39:36;;;;;;;17.98;6.82;;;8.00;63.50;;;;;;5038510;28;20083;-78
2021/04/23 06:42:01;;;;;;;29.38;7.15;;;8.10;62.70;;;;;;5031164;28;20441;-78
2021/04/23 06:44:27;;;;;;;32.08;7.40;;;8.20;61.00;;;;;;5035909;28;20048;-77
2021/04/23 06:46:52;;;;;;;26.20;7.03;;;8.20;61.10;;;;;;5034739;28;20054;-78
2021/04/23 06:49:18;;;;;;;23.60;6.65;;;8.40;59.20;;;;;;5027660;28;20030;-77
2021/04/23 06:51:45;;;;;;;16.05;6.40;;;8.80;58.70;;;;;;5032849;28;20033;-77
2021/04/23 06:54:10;;;;;;;31.85;7.38;;;9.50;57.20;;;;;;5029807;28;20064;-77
2021/04/23 06:56:36;;;;;;;16.73;6.10;;;9.80;51.00;;;;;;5030333;28;20041;-77
2021/04/23 06:59:02;;;;;;;29.80;6.63;;;10.20;47.40;;;;;;5029391;28;20136;-76
2021/04/23 07:01:28;;;;;;;21.85;6.45;;;10.30;44.20;;;;;;5022426;28;20079;-77
2021/04/23 07:03:53;;;;;;;30.25;6.93;;;10.60;43.60;;;;;;5033091;28;20043;-77
2021/04/23 07:06:19;;;;;;;20.05;6.47;;;10.90;41.40;;;;;;5027238;28;21972;-77
2021/04/23 07:08:45;;;;;;;37.78;7.32;;;11.10;39.80;;;;;;5012619;28;20069;-76
2021/04/23 07:11:10;;;;;;;19.92;6.53;;;11.10;37.40;;;;;;5022854;28;20064;-78
2021/04/23 07:13:36;;;;;;;38.85;7.93;;;10.90;36.60;;;;;;5019530;28;20481;-76
2021/04/23 07:16:02;;;;;;;21.38;6.75;;;11.00;36.60;;;;;;5015887;28;20506;-78
2021/04/23 07:18:27;;;;;;;28.88;6.68;;;11.10;36.20;;;;;;5021531;28;20061;-77
2021/04/23 07:20:54;;;;;;;32.15;7.65;;;11.20;35.70;;;;;;5025790;28;20051;-77
2021/04/23 07:23:20;;;;;;;20.50;6.65;;;11.50;35.00;;;;;;5027123;28;20113;-78
2021/04/23 07:25:46;;;;;;;24.17;7.15;;;11.20;33.80;;;;;;5024856;28;20133;-77
2021/04/23 07:28:11;;;;;;;26.88;7.22;;;11.30;33.80;;;;;;5031111;28;21942;-77
2021/04/23 07:30:42;;;;;;;27.73;6.25;;;11.60;32.20;;;;;;5023870;28;20080;-77
2021/04/23 07:33:12;;;;;;;25.98;5.68;;;12.00;30.60;;;;;;5031519;28;20047;-77
2021/04/23 07:35:38;;;;;;;22.98;5.45;;;12.20;28.80;;;;;;5031863;28;20465;-75
2021/04/23 07:38:04;;;;;;;19.63;5.28;;;12.40;28.40;;;;;;5027409;28;20107;-75
2021/04/23 07:40:30;;;;;;;23.73;6.00;;;12.70;28.30;;;;;;5033117;28;20501;-75
2021/04/23 07:42:55;;;;;;;28.40;5.32;;;12.70;26.90;;;;;;5034093;28;20041;-78
2021/04/23 07:45:22;;;;;;;18.27;6.53;;;12.50;26.70;;;;;;5044232;28;20021;-77
2021/04/23 07:47:47;;;;;;;20.42;6.22;;;13.00;27.00;;;;;;5028933;28;20155;-76
2021/04/23 07:50:17;;;;;;;20.30;5.85;;;12.70;25.80;;;;;;5044776;28;20075;-76
2021/04/23 07:52:43;;;;;;;19.35;5.18;;;12.90;26.50;;;;;;5041823;28;20565;-77
2021/04/23 07:55:10;;;;;;;25.40;5.25;;;12.90;27.10;;;;;;5037646;28;20136;-76
2021/04/23 07:57:37;;;;;;;36.08;5.25;;;13.00;26.20;;;;;;5039466;28;20037;-77
2021/04/23 08:00:05;;;;;;;26.23;4.63;;;12.80;25.70;;;;;;5035803;28;20029;-76
2021/04/23 08:02:31;;;;;;;28.05;6.20;;;12.90;26.00;;;;;;5037765;28;20124;-75
2021/04/23 08:04:56;;;;;;;19.08;5.18;;;12.70;25.70;;;;;;5043166;28;20577;-75
2021/04/23 08:07:22;;;;;;;20.42;5.28;;;13.10;25.30;;;;;;5046003;28;20348;-75
2021/04/23 08:09:47;;;;;;;15.55;4.85;;;13.30;24.70;;;;;;5043691;28;20127;-76
2021/04/23 08:12:13;;;;;;;25.08;5.32;;;13.60;24.60;;;;;;5035847;28;20532;-76
2021/04/23 08:14:39;;;;;;;16.17;5.05;;;13.50;23.90;;;;;;5046690;28;20648;-77
2021/04/23 08:17:04;;;;;;;36.35;5.60;;;13.20;24.40;;;;;;5042858;28;20040;-76
2021/04/23 08:19:30;;;;;;;23.40;6.20;;;12.90;24.60;;;;;;5042629;28;20041;-76
2021/04/23 08:21:56;;;;;;;28.42;4.95;;;13.20;24.90;;;;;;5041332;28;20116;-76
2021/04/23 08:24:22;;;;;;;26.67;5.22;;;13.20;24.10;;;;;;5042784;28;20033;-76
2021/04/23 08:26:47;;;;;;;27.08;5.20;;;13.50;24.30;;;;;;5048142;28;20402;-76
2021/04/23 08:29:14;;;;;;;18.65;4.93;;;13.90;23.30;;;;;;5033533;28;20176;-74
2021/04/23 08:31:42;;;;;;;18.27;5.05;;;14.20;22.70;;;;;;5039069;28;20204;-77
2021/04/23 08:34:08;;;;;;;20.70;4.63;;;14.50;21.70;;;;;;5035300;28;20599;-74
2021/04/23 08:36:34;;;;;;;16.20;4.88;;;14.70;21.10;;;;;;5036072;28;20087;-75
2021/04/23 08:39:00;;;;;;;33.80;6.57;;;14.70;20.70;;;;;;5033528;28;20139;-76
2021/04/23 08:41:25;;;;;;;19.20;5.82;;;14.80;20.00;;;;;;5035113;28;20037;-75
2021/04/23 08:43:51;;;;;;;24.58;5.55;;;14.80;21.40;;;;;;5033181;28;20112;-75
2021/04/23 08:46:17;;;;;;;17.95;5.40;;;15.30;20.50;;;;;;5039990;28;20044;-76
2021/04/23 08:48:43;;;;;;;17.30;5.53;;;15.20;20.10;;;;;;5039498;28;20041;-76
2021/04/23 08:51:09;;;;;;;18.27;6.28;;;15.00;21.00;;;;;;5029841;28;20515;-77
2021/04/23 08:53:37;;;;;;;19.35;5.63;;;15.20;20.10;;;;;;5029711;28;20075;-78
2021/04/23 08:56:03;;;;;;;21.98;5.97;;;15.20;19.60;;;;;;5029850;28;20057;-76
2021/04/23 08:58:29;;;;;;;19.30;5.85;;;15.60;20.10;;;;;;5029495;28;20842;-76
2021/04/23 09:00:55;;;;;;;22.80;5.78;;;15.90;18.80;;;;;;5032976;28;20052;-77
2021/04/23 09:03:22;;;;;;;17.98;5.88;;;16.00;19.30;;;;;;5033526;28;20127;-76
2021/04/23 09:06:14;;;;;;;20.17;6.00;;;16.40;18.50;;;;;;5028315;28;20062;-76
2021/04/23 09:08:55;;;;;;;28.00;6.97;;;16.60;18.00;;;;;;5031706;28;20058;-76
2021/04/23 09:11:22;;;;;;;24.58;6.45;;;16.90;17.80;;;;;;5026747;28;20041;-74
2021/04/23 09:13:55;;;;;;;17.02;5.93;;;17.60;18.70;;;;;;5025757;28;20406;-76
2021/04/23 09:16:24;;;;;;;25.63;5.53;;;17.70;17.90;;;;;;5027007;28;20091;-74
2021/04/23 09:18:51;;;;;;;19.92;5.18;;;18.40;16.60;;;;;;5034179;28;20444;-77
2021/04/23 09:21:17;;;;;;;18.67;5.40;;;18.50;15.40;;;;;;5029167;28;20126;-75
2021/04/23 09:23:48;;;;;;;20.38;6.07;;;19.20;14.80;;;;;;5030670;28;20498;-77
2021/04/23 09:26:35;;;;;;;15.63;5.32;;;19.70;14.00;;;;;;5041105;28;20047;-76
2021/04/23 09:29:01;;;;;;;18.00;6.32;;;20.80;14.10;;;;;;5052868;28;20037;-75
2021/04/23 09:31:30;;;;;;;17.70;5.85;;;19.80;12.00;;;;;;5034072;28;20060;-76
2021/04/23 09:34:02;;;;;;;20.40;5.63;;;20.10;12.60;;;;;;5024519;28;20770;-75
2021/04/23 09:36:37;;;;;;;18.02;5.97;;;20.50;12.50;;;;;;5027988;28;20132;-75
2021/04/23 09:39:03;;;;;;;16.73;6.32;;;20.80;12.00;;;;;;5037256;28;20037;-75
2021/04/23 09:41:28;;;;;;;18.13;5.57;;;20.80;11.70;;;;;;5033511;28;20047;-76
2021/04/23 09:43:54;;;;;;;17.10;6.18;;;20.10;11.70;;;;;;5038388;28;20051;-76
2021/04/23 09:46:32;;;;;;;16.90;5.07;;;20.30;11.60;;;;;;5034705;28;20074;-75
2021/04/23 09:49:28;;;;;;;15.73;5.60;;;21.50;11.90;;;;;;5038357;28;20151;-76
2021/04/23 09:51:54;;;;;;;22.55;5.35;;;21.70;10.30;;;;;;5021758;28;20421;-75
2021/04/23 09:54:23;;;;;;;20.55;5.85;;;21.60;10.50;;;;;;5037443;28;20036;-76
2021/04/23 09:56:49;;;;;;;23.85;6.00;;;22.10;10.80;;;;;;5034538;28;20037;-76
2021/04/23 09:59:21;;;;;;;14.45;5.35;;;21.30;10.70;;;;;;5032244;28;20112;-75
2021/04/23 10:02:06;;;;;;;20.23;5.05;;;21.60;9.90;;;;;;5033630;28;20589;-76
2021/04/23 10:04:36;;;;;;;14.85;4.50;;;21.70;10.50;;;;;;5038806;28;20521;-76
2021/04/23 10:07:17;;;;;;;17.20;6.03;;;22.40;10.30;;;;;;5037132;28;20094;-76
2021/04/23 10:09:48;;;;;;;16.63;5.80;;;21.00;9.10;;;;;;5034061;28;20033;-77
2021/04/23 10:12:27;;;;;;;22.25;5.20;;;21.20;10.40;;;;;;5038934;28;20486;-76
2021/04/23 10:15:04;;;;;;;17.63;5.93;;;22.20;10.30;;;;;;5035985;28;20446;-77
2021/04/23 10:17:29;;;;;;;14.90;5.38;;;22.50;9.00;;;;;;5036796;28;20041;-78
2021/04/23 10:19:56;;;;;;;11.57;4.60;;;23.00;8.60;;;;;;5036794;28;20079;-75
2021/04/23 10:22:22;;;;;;;16.33;5.43;;;21.80;7.50;;;;;;5032403;28;20053;-76
2021/04/23 10:24:50;;;;;;;21.17;5.90;;;20.90;7.10;;;;;;5034838;28;20037;-76
2021/04/23 10:27:17;;;;;;;18.33;4.95;;;20.30;9.00;;;;;;5037593;28;20037;-76
2021/04/23 10:29:48;;;;;;;18.45;5.28;;;21.50;9.70;;;;;;5037493;28;20039;-76
2021/04/23 10:32:15;;;;;;;19.70;5.38;;;21.90;8.70;;;;;;5030772;28;20115;-76
2021/04/23 10:34:41;;;;;;;20.17;5.53;;;22.00;7.90;;;;;;5037510;28;20029;-76
2021/04/23 10:37:09;;;;;;;18.63;5.20;;;21.80;7.70;;;;;;5038074;28;20550;-76
2021/04/23 10:39:37;;;;;;;14.85;5.18;;;22.00;8.60;;;;;;5035674;28;20045;-76
2021/04/23 10:42:26;;;;;;;15.40;4.90;;;22.70;8.80;;;;;;5040794;28;20063;-75
2021/04/23 10:44:57;;;;;;;15.63;5.95;;;21.70;8.30;;;;;;5039448;28;20037;-76
2021/04/23 10:47:34;;;;;;;15.43;5.85;;;22.40;7.90;;;;;;5044066;28;20040;-76
2021/04/23 10:50:15;;;;;;;15.30;4.70;;;22.70;7.50;;;;;;5047615;28;20029;-76
2021/04/23 10:53:01;;;;;;;11.80;4.57;;;23.10;6.60;;;;;;5038300;28;20458;-76
2021/04/23 10:55:37;;;;;;;20.05;5.05;;;23.10;6.00;;;;;;5042897;28;20128;-76
2021/04/23 10:58:03;;;;;;;11.00;5.00;;;22.20;6.90;;;;;;5037309;28;20055;-76
2021/04/23 11:00:32;;;;;;;11.50;4.70;;;23.60;6.30;;;;;;5032747;28;20197;-76
2021/04/23 11:03:20;;;;;;;16.90;5.53;;;23.10;5.40;;;;;;5038952;28;20613;-76
2021/04/23 11:06:06;;;;;;;12.93;4.43;;;23.30;5.70;;;;;;5037122;28;20351;-76
2021/04/23 11:08:36;;;;;;;17.13;4.65;;;23.10;5.10;;;;;;5037389;28;20045;-75
2021/04/23 11:11:02;;;;;;;12.88;4.03;;;23.70;5.70;;;;;;5037546;28;20037;-76
2021/04/23 11:13:30;;;;;;;21.48;4.50;;;23.70;5.90;;;;;;5038564;28;20067;-75
2021/04/23 11:16:17;;;;;;;15.80;4.72;;;24.00;5.20;;;;;;5041375;28;20055;-76
2021/04/23 11:19:09;;;;;;;23.40;5.53;;;23.50;4.70;;;;;;5041294;28;20151;-76
2021/04/23 11:21:38;;;;;;;18.38;5.28;;;23.30;5.60;;;;;;5019055;28;20409;-76
2021/04/23 11:24:16;;;;;;;18.38;4.80;;;23.70;6.60;;;;;;5041796;28;20033;-77
2021/04/23 11:29:20;;;;;;;18.30;6.25;;;24.10;7.00;;;;;;5041299;28;20043;-76
2021/04/23 11:32:04;;;;;;;15.95;4.75;;;23.70;6.20;;;;;;5038323;28;20025;-75
2021/04/23 11:34:33;;;;;;;17.83;5.63;;;23.70;6.10;;;;;;5041466;28;20069;-75
2021/04/23 11:37:09;;;;;;;17.02;5.20;;;24.10;5.70;;;;;;5037370;28;20037;-75
2021/04/23 11:39:44;;;;;;;16.90;5.03;;;24.30;5.90;;;;;;5037240;28;20105;-76
2021/04/23 11:42:24;;;;;;;22.13;5.85;;;24.30;5.90;;;;;;5040998;28;20041;-76
2021/04/23 11:44:54;;;;;;;16.60;5.55;;;24.40;5.60;;;;;;5023092;28;20040;-76
2021/04/23 11:47:26;;;;;;;16.40;5.43;;;24.80;4.90;;;;;;5027677;28;20033;-77
2021/04/23 11:50:04;;;;;;;15.50;4.72;;;25.00;4.80;;;;;;5038747;28;20036;-76
2021/04/23 11:52:31;;;;;;;14.70;4.38;;;24.20;5.10;;;;;;5037331;28;20676;-76
2021/04/23 11:54:57;;;;;;;18.35;4.65;;;24.30;3.60;;;;;;5038819;28;20079;-77
2021/04/23 11:57:28;;;;;;;12.75;4.65;;;24.10;3.20;;;;;;5045492;28;20668;-76
2021/04/23 11:59:58;;;;;;;19.95;5.30;;;23.80;4.90;;;;;;5038508;28;20243;-76
2021/04/23 12:03:06;;;;;;;13.10;4.90;;;25.00;5.00;;;;;;5039550;28;20537;-78
2021/04/23 12:05:34;;;;;;;21.10;5.65;;;24.40;3.90;;;;;;5035691;28;20095;-77
2021/04/23 12:08:14;;;;;;;14.52;5.55;;;25.10;3.90;;;;;;5037431;28;20029;-77
2021/04/23 12:10:50;;;;;;;16.58;4.82;;;24.80;4.10;;;;;;5053748;28;20132;-76
2021/04/23 12:13:23;;;;;;;16.73;5.38;;;24.70;4.10;;;;;;5044446;28;20043;-78
2021/04/23 12:16:00;;;;;;;14.45;4.45;;;24.80;3.70;;;;;;5035489;28;20029;-76
2021/04/23 12:18:27;;;;;;;12.05;4.75;;;24.10;3.90;;;;;;5038066;28;20037;-77
2021/04/23 12:20:55;;;;;;;16.52;4.65;;;24.80;4.10;;;;;;5039132;22;20049;-74
2021/04/23 12:23:23;;;;;;;17.98;5.03;;;23.50;3.20;;;;;;4997490;28;20042;-74
2021/04/23 12:25:51;;;;;;;10.20;3.85;;;24.20;2.60;;;;;;4999664;28;20449;-72
2021/04/23 12:28:26;;;;;;;10.80;3.65;;;24.10;2.90;;;;;;5005167;28;20383;-72
2021/04/23 12:31:20;;;;;;;10.85;3.67;;;24.20;1.00;;;;;;5000790;28;20050;-72
2021/04/23 12:33:48;;;;;;;8.07;3.67;;;24.50;1.60;;;;;;5005462;28;20041;-72
2021/04/23 12:36:30;;;;;;;12.40;2.72;;;25.50;1.20;;;;;;5000092;28;20114;-72
2021/04/23 12:38:57;;;;;;;11.82;3.40;;;26.00;1.00;;;;;;5000121;28;20049;-73
2021/04/23 12:41:42;;;;;;;10.80;3.45;;;25.70;1.00;;;;;;5003401;28;20087;-72
2021/04/23 12:44:34;;;;;;;14.48;3.17;;;25.40;1.00;;;;;;5001485;28;20042;-73
2021/04/23 12:47:05;;;;;;;9.88;3.35;;;25.20;1.00;;;;;;5002400;28;20127;-73
2021/04/23 12:49:36;;;;;;;7.78;2.78;;;26.00;1.00;;;;;;4999850;28;20505;-73
2021/04/23 12:52:13;;;;;;;10.02;3.80;;;26.10;1.00;;;;;;4999657;28;20045;-73
2021/04/23 12:54:43;;;;;;;14.80;4.80;;;25.70;1.30;;;;;;5004617;28;20041;-73
2021/04/23 12:57:31;;;;;;;13.05;5.15;;;25.50;2.20;;;;;;4995301;28;20034;-73